createdAt,value
2018-12-22T00:02:05.609Z,11.10
2018-12-22T00:04:32.876Z,22.50
2018-12-22T00:07:00.230Z,12.80
2018-12-22T00:09:27.618Z,14.47
2018-12-22T00:11:54.877Z,7.60
2018-12-22T00:14:22.931Z,13.60
2018-12-22T00:16:50.188Z,14.63
2018-12-22T00:19:17.450Z,13.90
2018-12-22T00:21:44.708Z,10.90
2018-12-22T00:24:11.998Z,12.13
2018-12-22T00:26:39.299Z,13.23
2018-12-22T00:29:06.557Z,10.67
2018-12-22T00:31:33.809Z,12.43
2018-12-22T00:34:01.161Z,13.60
2018-12-22T00:36:28.409Z,15.20
2018-12-22T00:38:55.694Z,13.67
2018-12-22T00:41:23.104Z,14.13
2018-12-22T00:43:50.414Z,20.20
2018-12-22T00:46:17.899Z,16.13
2018-12-22T00:48:45.236Z,11.77
2018-12-22T00:51:12.480Z,14.43
2018-12-22T00:53:39.748Z,21.17
2018-12-22T00:56:08.102Z,17.03
2018-12-22T00:58:35.402Z,19.53
2018-12-22T01:01:02.668Z,16.67
2018-12-22T01:03:29.985Z,14.57
2018-12-22T01:05:57.356Z,14.33
2018-12-22T01:08:24.618Z,16.60
2018-12-22T01:10:51.896Z,14.80
2018-12-22T01:13:19.143Z,18.83
2018-12-22T01:15:46.434Z,20.47
2018-12-22T01:18:13.690Z,16.33
2018-12-22T01:20:40.959Z,18.47
2018-12-22T01:23:08.255Z,18.10
2018-12-22T01:25:35.503Z,13.30
2018-12-22T01:28:02.752Z,17.20
2018-12-22T01:30:30.029Z,17.33
2018-12-22T01:32:57.281Z,18.03
2018-12-22T01:35:24.534Z,19.73
2018-12-22T01:37:51.833Z,35.27
2018-12-22T01:40:19.116Z,18.87
2018-12-22T01:42:46.386Z,19.20
2018-12-22T01:45:13.671Z,16.33
2018-12-22T01:47:40.912Z,16.10
2018-12-22T01:50:08.289Z,22.30
2018-12-22T01:52:35.561Z,18.73
2018-12-22T01:55:03.454Z,21.03
2018-12-22T01:57:30.690Z,16.43
2018-12-22T01:59:57.993Z,16.03
2018-12-22T02:02:25.246Z,17.27
2018-12-22T02:04:52.542Z,21.40
2018-12-22T02:07:19.818Z,15.80
2018-12-22T02:09:47.101Z,20.00
2018-12-22T02:12:14.351Z,15.63
2018-12-22T02:14:41.642Z,19.10
2018-12-22T02:17:09.007Z,19.53
2018-12-22T02:19:36.945Z,21.70
2018-12-22T02:22:04.241Z,16.10
2018-12-22T02:24:31.514Z,19.40
2018-12-22T02:26:58.892Z,20.53
2018-12-22T02:29:26.165Z,21.20
2018-12-22T02:31:53.441Z,20.13
2018-12-22T02:34:20.707Z,16.97
2018-12-22T02:36:47.953Z,15.97
2018-12-22T02:39:15.182Z,15.50
2018-12-22T02:41:42.460Z,22.10
2018-12-22T02:44:09.684Z,23.17
2018-12-22T02:46:36.947Z,22.57
2018-12-22T02:49:04.221Z,20.37
2018-12-22T02:51:31.502Z,21.07
2018-12-22T02:53:58.757Z,23.60
2018-12-22T02:56:26.280Z,23.13
2018-12-22T02:58:53.524Z,24.77
2018-12-22T03:01:20.781Z,36.80
2018-12-22T03:03:48.033Z,29.70
2018-12-22T03:06:15.753Z,28.47
2018-12-22T03:08:42.991Z,28.13
2018-12-22T03:11:10.264Z,31.13
2018-12-22T03:13:37.529Z,21.90
2018-12-22T03:16:04.781Z,26.23
2018-12-22T03:18:32.035Z,22.80
2018-12-22T03:20:59.302Z,24.63
2018-12-22T03:23:26.568Z,17.70
2018-12-22T03:25:53.855Z,21.47
2018-12-22T03:28:21.115Z,22.23
2018-12-22T03:30:48.368Z,18.00
2018-12-22T03:33:15.645Z,17.67
2018-12-22T03:35:42.943Z,19.73
2018-12-22T03:38:10.191Z,19.37
2018-12-22T03:40:37.453Z,19.47
2018-12-22T03:43:04.700Z,16.70
2018-12-22T03:45:31.957Z,17.97
2018-12-22T03:47:59.217Z,19.40
2018-12-22T03:50:26.484Z,24.33
2018-12-22T03:52:53.727Z,19.60
2018-12-22T03:55:21.005Z,18.57
2018-12-22T03:57:55.192Z,23.27
2018-12-22T04:00:22.457Z,20.07
2018-12-22T04:02:49.740Z,20.77
2018-12-22T04:05:16.978Z,17.57
2018-12-22T04:07:44.245Z,18.00
2018-12-22T04:10:11.505Z,19.53
2018-12-22T04:12:38.776Z,21.63
2018-12-22T04:15:06.278Z,24.20
2018-12-22T04:17:33.548Z,20.43
2018-12-22T04:20:00.781Z,29.80
2018-12-22T04:22:28.050Z,26.90
2018-12-22T04:24:55.322Z,21.10
2018-12-22T04:27:22.586Z,22.20
2018-12-22T04:29:49.826Z,28.63
2018-12-22T04:32:17.093Z,28.20
2018-12-22T04:34:44.364Z,29.37
2018-12-22T04:37:11.700Z,43.63
2018-12-22T04:39:38.973Z,35.50
2018-12-22T04:42:06.242Z,32.40
2018-12-22T04:44:33.472Z,45.50
2018-12-22T04:47:00.749Z,28.17
2018-12-22T04:49:27.992Z,43.77
2018-12-22T04:51:55.610Z,36.10
2018-12-22T04:54:22.885Z,34.63
2018-12-22T04:56:50.777Z,25.73
2018-12-22T04:59:18.397Z,33.10
2018-12-22T05:01:45.693Z,32.37
2018-12-22T05:04:12.976Z,46.63
2018-12-22T05:06:40.348Z,32.50
2018-12-22T05:09:08.170Z,33.93
2018-12-22T05:11:35.468Z,28.37
2018-12-22T05:14:02.758Z,32.03
2018-12-22T05:16:30.018Z,28.20
2018-12-22T05:18:57.325Z,29.23
2018-12-22T05:21:24.574Z,25.27
2018-12-22T05:23:51.816Z,41.17
2018-12-22T05:26:19.075Z,30.50
2018-12-22T05:28:46.381Z,19.43
2018-12-22T05:31:13.653Z,22.93
2018-12-22T05:33:40.965Z,20.40
2018-12-22T05:36:08.230Z,32.50
2018-12-22T05:38:35.875Z,30.10
2018-12-22T05:41:03.562Z,20.17
2018-12-22T05:43:31.448Z,30.57
2018-12-22T05:45:58.701Z,22.07
2018-12-22T05:48:25.957Z,32.27
2018-12-22T05:50:53.332Z,28.60
2018-12-22T05:53:20.686Z,27.87
2018-12-22T05:55:47.985Z,31.30
2018-12-22T05:58:15.518Z,21.47
2018-12-22T06:00:42.822Z,26.93
2018-12-22T06:03:10.152Z,30.83
2018-12-22T06:05:37.431Z,24.10
2018-12-22T06:08:04.810Z,24.90
2018-12-22T06:10:32.082Z,28.73
2018-12-22T06:12:59.364Z,21.67
2018-12-22T06:15:26.614Z,23.73
2018-12-22T06:17:54.110Z,24.57
2018-12-22T06:20:21.366Z,19.77
2018-12-22T06:22:48.644Z,30.00
2018-12-22T06:25:15.996Z,25.77
2018-12-22T06:27:43.295Z,20.67
2018-12-22T06:30:10.566Z,33.73
2018-12-22T06:32:37.846Z,23.33
2018-12-22T06:35:06.196Z,27.20
2018-12-22T06:37:34.512Z,33.33
2018-12-22T06:40:01.834Z,19.30
2018-12-22T06:42:29.401Z,19.30
2018-12-22T06:44:56.667Z,27.37
2018-12-22T06:47:24.168Z,21.20
2018-12-22T06:49:51.446Z,13.57
2018-12-22T06:52:18.758Z,14.33
2018-12-22T06:54:46.041Z,13.83
2018-12-22T06:57:13.280Z,15.23
2018-12-22T06:59:40.631Z,11.37
2018-12-22T07:02:07.939Z,7.90
2018-12-22T07:04:35.217Z,10.43
2018-12-22T07:07:02.489Z,5.90
2018-12-22T07:09:29.779Z,9.47
2018-12-22T07:11:57.210Z,4.20
2018-12-22T07:14:24.467Z,3.80
2018-12-22T07:16:51.692Z,4.10
2018-12-22T07:19:18.924Z,5.13
2018-12-22T07:21:46.226Z,2.40
2018-12-22T07:24:13.985Z,2.63
2018-12-22T07:26:41.327Z,7.87
2018-12-22T07:29:09.721Z,4.20
2018-12-22T07:31:36.967Z,4.67
2018-12-22T07:34:04.251Z,3.43
2018-12-22T07:36:31.461Z,4.53
2018-12-22T07:38:58.746Z,9.70
2018-12-22T07:41:26.233Z,6.13
2018-12-22T07:43:53.478Z,4.90
2018-12-22T07:46:20.720Z,5.00
2018-12-22T07:48:47.988Z,5.40
2018-12-22T07:51:15.519Z,5.20
2018-12-22T07:53:42.801Z,4.53
2018-12-22T07:56:10.041Z,5.90
2018-12-22T07:58:37.330Z,6.90
2018-12-22T08:01:04.564Z,8.13
2018-12-22T08:03:31.842Z,6.03
2018-12-22T08:05:59.523Z,4.20
2018-12-22T08:08:27.411Z,3.57
2018-12-22T08:10:54.727Z,11.27
2018-12-22T08:13:22.140Z,3.83
2018-12-22T08:15:49.471Z,5.40
2018-12-22T08:18:16.753Z,2.27
2018-12-22T08:20:44.025Z,4.73
2018-12-22T08:23:11.284Z,2.43
2018-12-22T08:25:38.654Z,3.90
2018-12-22T08:28:06.492Z,7.43
2018-12-22T08:30:33.840Z,9.10
2018-12-22T08:33:01.077Z,4.97
2018-12-22T08:35:28.392Z,6.27
2018-12-22T08:37:55.664Z,2.40
2018-12-22T08:40:22.928Z,2.87
2018-12-22T08:42:50.230Z,3.87
2018-12-22T08:45:17.549Z,3.67
2018-12-22T08:47:44.844Z,4.27
2018-12-22T08:50:12.244Z,3.50
2018-12-22T08:52:39.501Z,3.93
2018-12-22T08:55:07.549Z,2.30
2018-12-22T08:57:34.804Z,3.83
2018-12-22T09:00:02.424Z,4.00
2018-12-22T09:02:29.649Z,6.77
2018-12-22T09:04:56.955Z,6.10
2018-12-22T09:07:24.345Z,2.60
2018-12-22T09:09:51.608Z,8.93
2018-12-22T09:12:18.848Z,7.40
2018-12-22T09:14:46.244Z,10.03
2018-12-22T09:17:13.488Z,7.50
2018-12-22T09:19:40.773Z,6.43
2018-12-22T09:22:08.072Z,6.83
2018-12-22T09:24:35.317Z,4.10
2018-12-22T09:27:02.638Z,3.47
2018-12-22T09:29:29.958Z,3.13
2018-12-22T09:31:57.221Z,6.47
2018-12-22T09:34:24.493Z,6.87
2018-12-22T09:36:51.837Z,8.80
2018-12-22T09:39:19.187Z,5.23
2018-12-22T09:41:46.464Z,8.10
2018-12-22T09:44:13.843Z,5.67
2018-12-22T09:46:41.109Z,4.47
2018-12-22T09:49:08.361Z,5.30
2018-12-22T09:51:35.643Z,6.43
2018-12-22T09:54:02.887Z,5.37
2018-12-22T09:56:30.148Z,4.40
2018-12-22T09:58:57.374Z,6.33
2018-12-22T10:03:58.701Z,12.53
2018-12-22T10:06:25.960Z,7.20
2018-12-22T10:08:53.208Z,8.50
2018-12-22T10:11:20.463Z,6.83
2018-12-22T10:13:47.701Z,9.10
2018-12-22T10:16:14.943Z,9.70
2018-12-22T10:18:42.216Z,6.20
2018-12-22T10:21:09.813Z,5.77
2018-12-22T10:23:37.068Z,9.70
2018-12-22T10:26:04.497Z,9.20
2018-12-22T10:28:31.724Z,8.17
2018-12-22T10:30:58.966Z,11.40
2018-12-22T10:33:26.213Z,6.03
2018-12-22T10:35:53.518Z,9.33
2018-12-22T10:38:20.739Z,9.40
2018-12-22T10:40:47.973Z,5.33
2018-12-22T10:43:15.321Z,8.93
2018-12-22T10:45:42.620Z,6.60
2018-12-22T10:48:09.866Z,7.93
2018-12-22T10:50:37.119Z,3.87
2018-12-22T10:53:04.386Z,6.10
2018-12-22T10:55:31.688Z,6.00
2018-12-22T10:57:59.994Z,5.23
2018-12-22T11:00:27.671Z,4.43
2018-12-22T11:02:54.921Z,13.30
2018-12-22T11:05:22.145Z,5.27
2018-12-22T11:07:49.466Z,4.07
2018-12-22T11:10:19.736Z,5.60
2018-12-22T11:12:47.011Z,5.27
2018-12-22T11:15:14.239Z,4.10
2018-12-22T11:17:41.566Z,5.83
2018-12-22T11:20:09.072Z,5.13
2018-12-22T11:22:36.336Z,6.80
2018-12-22T11:25:08.565Z,5.67
2018-12-22T11:27:35.819Z,10.60
2018-12-22T11:30:03.644Z,12.83
2018-12-22T11:32:30.919Z,10.00
2018-12-22T11:34:58.154Z,8.03
2018-12-22T11:37:25.479Z,9.00
2018-12-22T11:39:53.150Z,12.03
2018-12-22T11:42:20.445Z,12.97
2018-12-22T11:44:47.696Z,10.50
2018-12-22T11:47:28.225Z,10.60
2018-12-22T11:49:55.509Z,11.43
2018-12-22T11:52:22.778Z,13.90
2018-12-22T11:54:50.062Z,11.20
2018-12-22T11:57:17.329Z,11.23
2018-12-22T11:59:44.581Z,15.00
2018-12-22T12:02:11.843Z,17.63
2018-12-22T12:04:39.083Z,16.03
2018-12-22T12:07:06.346Z,9.53
2018-12-22T12:09:33.615Z,12.20
2018-12-22T12:12:00.922Z,13.00
2018-12-22T12:14:29.425Z,20.73
2018-12-22T12:17:05.100Z,16.77
2018-12-22T12:19:33.799Z,10.30
2018-12-22T12:22:01.093Z,11.40
2018-12-22T12:24:28.385Z,13.57
2018-12-22T12:26:55.618Z,11.03
2018-12-22T12:29:22.905Z,16.40
2018-12-22T12:31:52.269Z,10.70
2018-12-22T12:34:19.581Z,16.43
2018-12-22T12:36:46.892Z,9.57
2018-12-22T12:39:15.247Z,11.17
2018-12-22T12:41:42.648Z,12.27
2018-12-22T12:44:09.957Z,12.23
2018-12-22T12:46:41.394Z,9.57
2018-12-22T12:49:08.789Z,8.13
2018-12-22T12:51:36.167Z,7.17
2018-12-22T12:54:03.548Z,7.40
2018-12-22T12:56:31.121Z,15.30
2018-12-22T12:58:58.376Z,4.87
2018-12-22T13:01:25.849Z,14.13
2018-12-22T13:03:53.127Z,12.63
2018-12-22T13:06:20.612Z,10.43
2018-12-22T13:08:47.880Z,16.73
2018-12-22T13:11:15.150Z,10.37
2018-12-22T13:13:51.883Z,7.40
2018-12-22T13:16:19.154Z,5.47
2018-12-22T13:18:46.438Z,8.07
2018-12-22T13:21:14.000Z,17.47
2018-12-22T13:23:41.284Z,9.73
2018-12-22T13:26:08.538Z,11.60
2018-12-22T13:28:35.832Z,15.73
2018-12-22T13:31:03.196Z,16.07
2018-12-22T13:33:30.967Z,3.73
2018-12-22T13:35:58.333Z,8.77
2018-12-22T13:38:26.386Z,7.03
2018-12-22T13:40:55.460Z,7.13
2018-12-22T13:43:22.884Z,3.50
2018-12-22T13:45:50.259Z,7.70
2018-12-22T13:48:17.641Z,4.13
2018-12-22T13:50:45.043Z,5.73
2018-12-22T13:53:12.368Z,4.13
2018-12-22T13:55:39.658Z,1.70
2018-12-22T13:58:07.017Z,7.30
2018-12-22T14:00:39.105Z,3.67
2018-12-22T14:03:08.832Z,10.23
2018-12-22T14:05:36.212Z,5.20
2018-12-22T14:08:03.512Z,5.93
2018-12-22T14:10:30.823Z,8.73
2018-12-22T14:12:58.056Z,6.40
2018-12-22T14:15:25.479Z,4.70
2018-12-22T14:18:03.199Z,5.53
2018-12-22T14:20:31.915Z,2.20
2018-12-22T14:23:00.320Z,5.90
2018-12-22T14:25:29.498Z,4.53
2018-12-22T14:27:56.768Z,2.23
2018-12-22T14:30:24.077Z,3.03
2018-12-22T14:32:51.603Z,3.53
2018-12-22T14:35:53.169Z,6.63
2018-12-22T14:38:21.324Z,6.73
2018-12-22T14:40:48.745Z,3.63
2018-12-22T14:43:15.973Z,5.00
2018-12-22T14:45:43.299Z,3.57
2018-12-22T14:48:10.560Z,2.00
2018-12-22T14:50:38.024Z,2.73
2018-12-22T14:53:05.952Z,2.80
2018-12-22T14:55:33.240Z,9.33
2018-12-22T14:58:21.286Z,7.00
2018-12-22T15:00:48.624Z,8.00
2018-12-22T15:03:15.857Z,9.53
2018-12-22T15:05:43.232Z,9.77
2018-12-22T15:08:10.571Z,7.27
2018-12-22T15:10:37.990Z,2.60
2018-12-22T15:13:05.254Z,10.90
2018-12-22T15:15:32.725Z,9.07
2018-12-22T15:17:59.997Z,3.97
2018-12-22T15:20:29.250Z,2.70
2018-12-22T15:22:56.523Z,6.10
2018-12-22T15:25:23.917Z,1.60
2018-12-22T15:27:51.973Z,2.53
2018-12-22T15:30:20.134Z,1.33
2018-12-22T15:32:54.387Z,3.17
2018-12-22T15:35:16.743Z,7.37
2018-12-22T15:37:44.083Z,5.13
2018-12-22T15:40:11.520Z,3.80
2018-12-22T15:42:39.201Z,7.20
2018-12-22T15:45:09.620Z,3.63
2018-12-22T15:47:37.637Z,4.27
2018-12-22T15:50:07.187Z,3.43
2018-12-22T15:52:34.558Z,6.80
2018-12-22T15:55:01.862Z,4.37
2018-12-22T15:57:29.288Z,2.93
2018-12-22T15:59:56.687Z,6.00
2018-12-22T16:02:23.958Z,3.07
2018-12-22T16:04:51.306Z,3.23
2018-12-22T16:07:18.649Z,6.63
2018-12-22T16:09:46.113Z,6.10
2018-12-22T16:12:13.409Z,11.23
2018-12-22T16:14:40.726Z,8.57
2018-12-22T16:17:08.127Z,2.67
2018-12-22T16:19:35.345Z,6.63
2018-12-22T16:22:02.835Z,5.47
2018-12-22T16:24:30.097Z,3.33
2018-12-22T16:26:57.382Z,4.97
2018-12-22T16:29:28.683Z,4.27
2018-12-22T16:31:56.137Z,5.40
2018-12-22T16:34:23.372Z,2.73
2018-12-22T16:36:50.671Z,3.80
2018-12-22T16:39:17.945Z,5.27
2018-12-22T16:41:45.433Z,6.10
2018-12-22T16:44:15.665Z,8.83
2018-12-22T16:46:43.020Z,3.00
2018-12-22T16:49:10.349Z,4.30
2018-12-22T16:51:37.650Z,6.20
2018-12-22T16:54:04.928Z,12.47
2018-12-22T16:56:32.187Z,7.43
2018-12-22T16:59:00.324Z,5.63
2018-12-22T17:01:45.717Z,3.87
2018-12-22T17:04:13.129Z,4.10
2018-12-22T17:06:41.283Z,7.03
2018-12-22T17:09:10.913Z,16.27
2018-12-22T17:11:37.997Z,4.00
2018-12-22T17:14:05.293Z,3.03
2018-12-22T17:16:32.643Z,7.73
2018-12-22T17:19:00.022Z,4.37
2018-12-22T17:22:50.617Z,4.13
2018-12-22T17:25:25.568Z,4.40
2018-12-22T17:27:52.899Z,7.93
2018-12-22T17:30:20.200Z,6.50
2018-12-22T17:32:47.487Z,3.97
2018-12-22T17:35:15.363Z,5.57
2018-12-22T17:37:42.639Z,9.70
2018-12-22T17:40:12.556Z,4.20
2018-12-22T17:42:39.913Z,6.20
2018-12-22T17:45:08.287Z,8.20
2018-12-22T17:47:35.541Z,4.60
2018-12-22T17:50:03.085Z,5.40
2018-12-22T17:52:30.334Z,9.83
2018-12-22T17:54:57.625Z,12.10
2018-12-22T17:57:25.576Z,5.07
2018-12-22T17:59:53.001Z,7.47
2018-12-22T18:02:20.255Z,10.10
2018-12-22T18:04:47.601Z,2.97
2018-12-22T18:07:19.775Z,13.53
2018-12-22T18:09:47.074Z,6.17
2018-12-22T18:12:14.377Z,5.70
2018-12-22T18:14:41.666Z,4.33
2018-12-22T18:17:15.758Z,12.20
2018-12-22T18:19:43.013Z,14.87
2018-12-22T18:22:10.365Z,11.20
2018-12-22T18:24:38.125Z,5.90
2018-12-22T18:27:05.844Z,6.67
2018-12-22T18:29:33.874Z,4.27
2018-12-22T18:32:01.139Z,5.80
2018-12-22T18:34:28.408Z,6.20
2018-12-22T18:36:55.821Z,7.53
2018-12-22T18:39:23.117Z,9.40
2018-12-22T18:41:50.472Z,8.47
2018-12-22T18:44:17.787Z,6.90
2018-12-22T18:46:45.177Z,4.63
2018-12-22T18:49:12.416Z,7.93
2018-12-22T18:51:39.676Z,6.90
2018-12-22T18:54:06.949Z,6.90
2018-12-22T18:56:34.223Z,4.23
2018-12-22T18:59:01.597Z,3.47
2018-12-22T19:01:28.905Z,11.93
2018-12-22T19:03:56.172Z,6.73
2018-12-22T19:06:23.433Z,9.77
2018-12-22T19:08:52.024Z,8.47
2018-12-22T19:11:20.966Z,10.43
2018-12-22T19:13:48.358Z,6.77
2018-12-22T19:16:15.717Z,10.10
2018-12-22T19:18:42.971Z,9.73
2018-12-22T19:21:10.266Z,4.70
2018-12-22T19:23:37.598Z,10.90
2018-12-22T19:26:04.881Z,5.63
2018-12-22T19:28:32.110Z,21.17
2018-12-22T19:30:59.414Z,5.27
2018-12-22T19:33:26.664Z,7.63
2018-12-22T19:35:54.213Z,7.00
2018-12-22T19:38:21.489Z,6.63
2018-12-22T19:40:48.777Z,10.93
2018-12-22T19:43:16.031Z,10.77
2018-12-22T19:45:43.285Z,7.30
2018-12-22T19:48:10.546Z,7.63
2018-12-22T19:50:37.806Z,9.97
2018-12-22T19:53:05.061Z,8.03
2018-12-22T19:55:33.214Z,11.60
2018-12-22T19:58:00.507Z,11.33
2018-12-22T20:00:27.882Z,9.87
2018-12-22T20:02:55.244Z,9.33
2018-12-22T20:05:22.606Z,9.27
2018-12-22T20:07:49.913Z,11.73
2018-12-22T20:10:17.184Z,10.33
2018-12-22T20:12:44.481Z,12.03
2018-12-22T20:15:11.769Z,11.40
2018-12-22T20:17:39.171Z,7.87
2018-12-22T20:20:07.532Z,6.70
2018-12-22T20:22:34.881Z,12.00
2018-12-22T20:25:02.203Z,11.23
2018-12-22T20:27:29.589Z,6.43
2018-12-22T20:29:57.039Z,8.37
2018-12-22T20:32:24.346Z,8.70
2018-12-22T20:34:51.634Z,11.07
2018-12-22T20:37:18.948Z,5.20
2018-12-22T20:39:46.206Z,7.87
2018-12-22T20:42:13.557Z,8.23
2018-12-22T20:44:40.816Z,8.73
2018-12-22T20:47:08.093Z,3.53
2018-12-22T20:49:35.874Z,5.10
2018-12-22T20:52:03.261Z,3.93
2018-12-22T20:54:30.543Z,4.43
2018-12-22T20:56:57.854Z,6.37
2018-12-22T20:59:25.280Z,4.83
2018-12-22T21:01:52.574Z,3.47
2018-12-22T21:04:20.224Z,5.03
2018-12-22T21:06:47.604Z,7.53
2018-12-22T21:09:14.926Z,4.80
2018-12-22T21:11:42.201Z,4.60
2018-12-22T21:14:09.496Z,6.53
2018-12-22T21:16:36.761Z,5.73
2018-12-22T21:19:04.049Z,7.67
2018-12-22T21:21:31.289Z,4.63
2018-12-22T21:23:58.567Z,6.23
2018-12-22T21:26:25.821Z,3.80
2018-12-22T21:28:53.095Z,8.70
2018-12-22T21:31:20.495Z,4.70
2018-12-22T21:33:47.769Z,5.40
2018-12-22T21:36:15.010Z,4.43
2018-12-22T21:38:42.283Z,3.10
2018-12-22T21:41:10.265Z,3.00
2018-12-22T21:43:37.549Z,3.77
2018-12-22T21:46:04.906Z,2.90
2018-12-22T21:48:32.200Z,3.73
2018-12-22T21:50:59.526Z,5.10
2018-12-22T21:53:26.804Z,5.80
2018-12-22T21:55:54.070Z,10.40
2018-12-22T21:58:21.352Z,11.43
2018-12-22T22:00:48.583Z,6.27
2018-12-22T22:03:15.897Z,5.43
2018-12-22T22:05:43.141Z,4.17
2018-12-22T22:08:10.368Z,4.03
2018-12-22T22:10:38.010Z,3.67
2018-12-22T22:13:05.376Z,4.30
2018-12-22T22:15:32.811Z,2.17
2018-12-22T22:18:00.064Z,3.10
2018-12-22T22:20:27.316Z,2.60
2018-12-22T22:22:54.590Z,2.63
2018-12-22T22:25:21.866Z,2.27
2018-12-22T22:27:49.085Z,2.87
2018-12-22T22:30:16.344Z,3.10
2018-12-22T22:32:43.707Z,4.80
2018-12-22T22:35:10.974Z,4.63
2018-12-22T22:37:38.214Z,5.50
2018-12-22T22:40:05.696Z,4.97
2018-12-22T22:42:32.918Z,3.93
2018-12-22T22:45:00.236Z,8.93
2018-12-22T22:47:27.668Z,6.20
2018-12-22T22:49:54.893Z,10.77
2018-12-22T22:52:22.131Z,8.93
2018-12-22T22:54:49.382Z,10.20
2018-12-22T22:57:16.697Z,7.93
2018-12-22T22:59:44.126Z,11.47
2018-12-22T23:02:11.340Z,13.03
2018-12-22T23:04:38.585Z,12.40
2018-12-22T23:07:05.838Z,14.47
2018-12-22T23:09:33.097Z,21.47
2018-12-22T23:12:00.451Z,20.90
2018-12-22T23:14:27.734Z,16.67
2018-12-22T23:16:55.072Z,31.73
2018-12-22T23:19:22.383Z,19.57
2018-12-22T23:21:49.631Z,33.43
2018-12-22T23:24:16.881Z,25.57
2018-12-22T23:26:44.149Z,20.80
2018-12-22T23:29:11.425Z,22.53
2018-12-22T23:31:38.648Z,30.17
2018-12-22T23:34:06.079Z,25.33
2018-12-22T23:36:33.346Z,25.33
2018-12-22T23:39:00.629Z,27.67
2018-12-22T23:41:27.889Z,32.27
2018-12-22T23:43:55.142Z,27.10
2018-12-22T23:46:22.425Z,24.37
2018-12-22T23:48:49.677Z,19.13
2018-12-22T23:51:17.108Z,20.43
2018-12-22T23:53:44.347Z,24.17
2018-12-22T23:56:11.784Z,21.57
2018-12-22T23:58:39.020Z,26.90
